createdAt,value
2018-01-03T00:00:37.679Z,982.35
2018-01-03T00:01:37.667Z,982.33
2018-01-03T00:02:37.656Z,982.38
2018-01-03T00:03:37.644Z,982.33
2018-01-03T00:04:37.632Z,982.28
2018-01-03T00:05:37.623Z,982.44
2018-01-03T00:06:37.611Z,982.26
2018-01-03T00:07:37.600Z,982.34
2018-01-03T00:08:37.589Z,982.31
2018-01-03T00:09:37.577Z,982.24
2018-01-03T00:10:37.567Z,982.43
2018-01-03T00:11:37.556Z,982.56
2018-01-03T00:12:37.548Z,982.35
2018-01-03T00:13:37.533Z,982.48
2018-01-03T00:14:37.521Z,982.53
2018-01-03T00:15:37.511Z,982.37
2018-01-03T00:16:37.499Z,982.31
2018-01-03T00:17:37.488Z,982.29
2018-01-03T00:18:37.482Z,981.99
2018-01-03T00:19:37.465Z,981.99
2018-01-03T00:20:37.454Z,982.06
2018-01-03T00:21:37.443Z,981.86
2018-01-03T00:22:37.436Z,981.77
2018-01-03T00:23:37.421Z,981.70
2018-01-03T00:24:37.410Z,981.57
2018-01-03T00:25:37.398Z,981.53
2018-01-03T00:26:37.388Z,981.40
2018-01-03T00:27:37.377Z,981.35
2018-01-03T00:28:37.366Z,981.23
2018-01-03T00:29:37.354Z,981.14
2018-01-03T00:30:37.343Z,981.02
2018-01-03T00:31:37.333Z,981.06
2018-01-03T00:32:37.322Z,980.85
2018-01-03T00:33:37.311Z,980.88
2018-01-03T00:34:37.300Z,980.76
2018-01-03T00:35:37.290Z,980.62
2018-01-03T00:36:37.277Z,980.62
2018-01-03T00:37:37.267Z,980.54
2018-01-03T00:38:37.255Z,980.46
2018-01-03T00:39:37.246Z,980.64
2018-01-03T00:40:37.233Z,980.43
2018-01-03T00:41:37.222Z,980.31
2018-01-03T00:42:37.213Z,980.39
2018-01-03T00:43:37.201Z,980.22
2018-01-03T00:44:37.189Z,980.11
2018-01-03T00:45:37.178Z,980.16
2018-01-03T00:46:37.168Z,980.07
2018-01-03T00:47:37.157Z,980.08
2018-01-03T00:48:37.146Z,980.11
2018-01-03T00:49:37.138Z,980.00
2018-01-03T00:50:37.125Z,979.93
2018-01-03T00:51:37.113Z,979.88
2018-01-03T00:52:37.103Z,979.77
2018-01-03T00:53:37.098Z,979.75
2018-01-03T00:54:37.082Z,979.63
2018-01-03T00:55:37.071Z,979.59
2018-01-03T00:56:37.060Z,979.66
2018-01-03T00:57:37.049Z,979.59
2018-01-03T00:58:37.039Z,979.59
2018-01-03T00:59:37.028Z,979.39
2018-01-03T01:00:37.017Z,979.29
2018-01-03T01:01:37.006Z,979.09
2018-01-03T01:02:37.000Z,979.22
2018-01-03T01:03:36.985Z,979.10
2018-01-03T01:04:36.975Z,979.00
2018-01-03T01:05:36.964Z,978.87
2018-01-03T01:06:36.953Z,978.93
2018-01-03T01:07:36.944Z,978.98
2018-01-03T01:08:36.932Z,978.88
2018-01-03T01:09:36.922Z,978.82
2018-01-03T01:10:36.911Z,978.84
2018-01-03T01:11:36.914Z,978.66
2018-01-03T01:12:36.890Z,978.67
2018-01-03T01:13:36.878Z,978.70
2018-01-03T01:14:36.867Z,978.61
2018-01-03T01:15:36.858Z,978.71
2018-01-03T01:16:36.846Z,978.70
2018-01-03T01:17:36.836Z,978.66
2018-01-03T01:18:36.825Z,978.67
2018-01-03T01:19:36.814Z,978.64
2018-01-03T01:20:36.803Z,978.65
2018-01-03T01:21:36.795Z,978.88
2018-01-03T01:22:36.782Z,978.82
2018-01-03T01:23:36.772Z,978.74
2018-01-03T01:24:36.761Z,978.88
2018-01-03T01:25:36.752Z,978.94
2018-01-03T01:26:36.740Z,978.89
2018-01-03T01:27:36.729Z,978.84
2018-01-03T01:28:36.719Z,978.67
2018-01-03T01:29:36.708Z,978.67
2018-01-03T01:30:36.697Z,978.44
2018-01-03T01:31:36.686Z,978.30
2018-01-03T01:32:36.675Z,978.12
2018-01-03T01:33:36.663Z,978.13
2018-01-03T01:34:36.653Z,978.12
2018-01-03T01:35:36.642Z,978.01
2018-01-03T01:36:36.630Z,977.94
2018-01-03T01:37:36.619Z,977.67
2018-01-03T01:38:36.608Z,977.62
2018-01-03T01:39:36.597Z,977.49
2018-01-03T01:40:36.584Z,977.43
2018-01-03T01:41:36.575Z,977.43
2018-01-03T01:42:36.562Z,977.38
2018-01-03T01:43:36.551Z,977.38
2018-01-03T01:44:36.540Z,977.23
2018-01-03T01:45:36.528Z,977.11
2018-01-03T01:46:36.517Z,977.07
2018-01-03T01:47:36.506Z,976.88
2018-01-03T01:48:36.493Z,976.98
2018-01-03T01:49:36.482Z,976.87
2018-01-03T01:50:36.473Z,976.84
2018-01-03T01:51:36.460Z,976.66
2018-01-03T01:52:36.448Z,976.60
2018-01-03T01:53:36.438Z,976.54
2018-01-03T01:54:36.426Z,976.30
2018-01-03T01:55:36.415Z,976.46
2018-01-03T01:56:36.405Z,976.40
2018-01-03T01:57:36.393Z,976.30
2018-01-03T01:58:36.381Z,976.18
2018-01-03T01:59:36.375Z,976.04
2018-01-03T02:00:36.361Z,975.99
2018-01-03T02:01:36.347Z,976.00
2018-01-03T02:02:36.337Z,975.68
2018-01-03T02:03:36.327Z,975.84
2018-01-03T02:04:36.314Z,975.90
2018-01-03T02:05:36.307Z,975.88
2018-01-03T02:06:36.295Z,975.55
2018-01-03T02:07:36.281Z,975.38
2018-01-03T02:08:36.269Z,975.08
2018-01-03T02:09:36.257Z,975.39
2018-01-03T02:10:36.247Z,975.32
2018-01-03T02:11:36.236Z,975.27
2018-01-03T02:12:36.224Z,975.36
2018-01-03T02:13:36.214Z,975.08
2018-01-03T02:14:36.203Z,975.41
2018-01-03T02:15:36.191Z,975.26
2018-01-03T02:16:36.226Z,975.14
2018-01-03T02:17:36.168Z,975.06
2018-01-03T02:18:36.181Z,974.96
2018-01-03T02:19:36.147Z,974.95
2018-01-03T02:20:36.135Z,974.85
2018-01-03T02:21:36.124Z,974.71
2018-01-03T02:22:36.114Z,974.67
2018-01-03T02:23:36.104Z,974.81
2018-01-03T02:24:36.091Z,974.63
2018-01-03T02:25:36.081Z,974.50
2018-01-03T02:26:36.070Z,974.46
2018-01-03T02:27:36.059Z,974.48
2018-01-03T02:28:36.047Z,974.07
2018-01-03T02:29:36.038Z,974.26
2018-01-03T02:30:36.026Z,974.35
2018-01-03T02:31:36.017Z,974.29
2018-01-03T02:32:36.004Z,974.19
2018-01-03T02:33:35.993Z,974.15
2018-01-03T02:34:35.982Z,974.37
2018-01-03T02:35:35.972Z,974.03
2018-01-03T02:36:35.960Z,973.90
2018-01-03T02:37:35.950Z,974.06
2018-01-03T02:38:35.938Z,974.15
2018-01-03T02:39:35.928Z,974.04
2018-01-03T02:40:35.917Z,973.93
2018-01-03T02:41:35.906Z,973.94
2018-01-03T02:42:35.900Z,973.78
2018-01-03T02:43:35.883Z,974.04
2018-01-03T02:44:35.874Z,973.83
2018-01-03T02:45:35.862Z,973.72
2018-01-03T02:46:35.851Z,973.63
2018-01-03T02:47:35.842Z,973.72
2018-01-03T02:48:35.831Z,973.54
2018-01-03T02:49:35.819Z,973.83
2018-01-03T02:50:35.809Z,973.63
2018-01-03T02:51:35.798Z,973.68
2018-01-03T02:52:35.786Z,973.55
2018-01-03T02:53:35.776Z,973.62
2018-01-03T02:54:35.767Z,973.42
2018-01-03T02:55:35.756Z,973.59
2018-01-03T02:56:35.745Z,973.47
2018-01-03T02:57:35.734Z,973.34
2018-01-03T02:58:35.724Z,973.08
2018-01-03T02:59:35.714Z,973.12
2018-01-03T03:00:35.701Z,973.05
2018-01-03T03:01:35.691Z,972.94
2018-01-03T03:02:35.682Z,972.89
2018-01-03T03:03:35.671Z,972.79
2018-01-03T03:04:35.659Z,972.74
2018-01-03T03:05:35.648Z,972.67
2018-01-03T03:06:35.638Z,972.90
2018-01-03T03:07:35.628Z,972.74
2018-01-03T03:08:35.616Z,972.44
2018-01-03T03:09:35.605Z,972.25
2018-01-03T03:10:35.596Z,972.42
2018-01-03T03:11:35.584Z,972.44
2018-01-03T03:12:35.572Z,972.13
2018-01-03T03:13:35.562Z,972.14
2018-01-03T03:14:35.550Z,972.01
2018-01-03T03:15:35.541Z,971.88
2018-01-03T03:16:35.529Z,972.04
2018-01-03T03:17:35.518Z,971.73
2018-01-03T03:18:35.508Z,972.03
2018-01-03T03:19:35.497Z,972.12
2018-01-03T03:20:35.485Z,972.18
2018-01-03T03:21:35.474Z,972.04
2018-01-03T03:22:35.464Z,972.01
2018-01-03T03:23:35.454Z,972.07
2018-01-03T03:24:35.443Z,971.78
2018-01-03T03:25:35.433Z,971.80
2018-01-03T03:26:35.421Z,971.54
2018-01-03T03:27:35.412Z,971.65
2018-01-03T03:28:35.407Z,971.64
2018-01-03T03:29:35.390Z,971.70
2018-01-03T03:30:35.379Z,971.57
2018-01-03T03:31:35.368Z,971.29
2018-01-03T03:32:35.357Z,971.29
2018-01-03T03:33:35.349Z,971.58
2018-01-03T03:34:35.338Z,971.36
2018-01-03T03:35:35.327Z,971.29
2018-01-03T03:36:35.315Z,971.48
2018-01-03T03:37:35.304Z,971.55
2018-01-03T03:38:35.295Z,971.49
2018-01-03T03:39:35.285Z,971.35
2018-01-03T03:40:35.274Z,971.48
2018-01-03T03:41:35.263Z,971.29
2018-01-03T03:42:35.252Z,971.17
2018-01-03T03:43:35.242Z,971.35
2018-01-03T03:44:35.232Z,971.30
2018-01-03T03:45:35.219Z,971.14
2018-01-03T03:46:35.210Z,970.85
2018-01-03T03:47:35.200Z,970.89
2018-01-03T03:48:35.188Z,971.04
2018-01-03T03:49:35.177Z,971.23
2018-01-03T03:50:35.168Z,971.00
2018-01-03T03:51:35.156Z,970.86
2018-01-03T03:52:35.193Z,971.02
2018-01-03T03:53:35.134Z,970.70
2018-01-03T03:54:35.124Z,970.75
2018-01-03T03:55:35.114Z,970.73
2018-01-03T03:56:35.101Z,970.57
2018-01-03T03:57:35.089Z,970.62
2018-01-03T03:58:35.081Z,970.80
2018-01-03T03:59:35.071Z,970.75
2018-01-03T04:00:35.057Z,970.68
2018-01-03T04:01:35.047Z,970.89
2018-01-03T04:02:35.037Z,970.69
2018-01-03T04:03:35.026Z,970.75
2018-01-03T04:04:35.015Z,970.72
2018-01-03T04:05:35.004Z,971.15
2018-01-03T04:06:34.992Z,970.92
2018-01-03T04:07:34.982Z,971.17
2018-01-03T04:08:34.971Z,971.28
2018-01-03T04:09:34.959Z,972.36
2018-01-03T04:10:34.951Z,972.99
2018-01-03T04:11:34.939Z,972.79
2018-01-03T04:12:34.933Z,972.98
2018-01-03T04:13:34.916Z,973.01
2018-01-03T04:14:34.904Z,972.92
2018-01-03T04:15:34.893Z,972.89
2018-01-03T04:16:34.882Z,973.14
2018-01-03T04:17:34.870Z,973.24
2018-01-03T04:18:34.859Z,972.99
2018-01-03T04:19:34.852Z,973.01
2018-01-03T04:20:34.836Z,973.26
2018-01-03T04:21:34.825Z,973.13
2018-01-03T04:22:34.817Z,973.20
2018-01-03T04:23:34.802Z,973.01
2018-01-03T04:24:34.789Z,972.92
2018-01-03T04:25:34.778Z,972.89
2018-01-03T04:26:34.767Z,972.87
2018-01-03T04:27:34.756Z,972.67
2018-01-03T04:28:34.743Z,972.95
2018-01-03T04:29:34.731Z,972.77
2018-01-03T04:30:34.720Z,972.85
2018-01-03T04:31:34.707Z,972.74
2018-01-03T04:32:34.701Z,972.49
2018-01-03T04:33:34.683Z,972.32
2018-01-03T04:34:34.672Z,972.14
2018-01-03T04:35:34.660Z,972.01
2018-01-03T04:36:34.646Z,971.78
2018-01-03T04:37:34.635Z,971.84
2018-01-03T04:38:34.625Z,972.12
2018-01-03T04:39:34.612Z,972.24
2018-01-03T04:40:34.601Z,972.23
2018-01-03T04:41:34.589Z,972.24
2018-01-03T04:42:34.576Z,972.50
2018-01-03T04:43:34.565Z,972.46
2018-01-03T04:44:34.553Z,972.37
2018-01-03T04:45:34.543Z,972.25
2018-01-03T04:46:34.530Z,972.16
2018-01-03T04:47:34.518Z,972.08
2018-01-03T04:48:34.506Z,972.13
2018-01-03T04:49:34.494Z,972.17
2018-01-03T04:50:34.484Z,972.10
2018-01-03T04:51:34.471Z,971.88
2018-01-03T04:52:34.460Z,972.02
2018-01-03T04:53:34.449Z,972.36
2018-01-03T04:54:34.437Z,972.35
2018-01-03T04:55:34.425Z,972.23
2018-01-03T04:56:34.414Z,972.31
2018-01-03T04:57:34.401Z,972.47
2018-01-03T04:58:34.392Z,972.36
2018-01-03T04:59:34.379Z,972.45
2018-01-03T05:00:34.367Z,972.36
2018-01-03T05:01:34.355Z,972.47
2018-01-03T05:02:34.344Z,972.43
2018-01-03T05:03:34.333Z,972.52
2018-01-03T05:04:34.321Z,972.60
2018-01-03T05:05:34.309Z,972.69
2018-01-03T05:06:34.298Z,972.73
2018-01-03T05:07:34.286Z,972.83
2018-01-03T05:08:34.274Z,972.69
2018-01-03T05:09:34.262Z,972.71
2018-01-03T05:10:34.252Z,972.75
2018-01-03T05:11:34.239Z,972.68
2018-01-03T05:12:34.227Z,972.71
2018-01-03T05:13:34.221Z,972.66
2018-01-03T05:14:34.205Z,972.76
2018-01-03T05:15:34.193Z,972.71
2018-01-03T05:16:34.182Z,972.75
2018-01-03T05:17:34.170Z,972.73
2018-01-03T05:18:34.158Z,972.83
2018-01-03T05:19:34.146Z,972.87
2018-01-03T05:20:34.134Z,972.81
2018-01-03T05:21:34.122Z,972.80
2018-01-03T05:22:34.112Z,972.85
2018-01-03T05:23:34.100Z,972.82
2018-01-03T05:24:34.088Z,972.86
2018-01-03T05:25:34.078Z,972.85
2018-01-03T05:26:34.066Z,972.83
2018-01-03T05:27:34.054Z,972.81
2018-01-03T05:28:34.041Z,972.95
2018-01-03T05:29:34.031Z,972.90
2018-01-03T05:30:34.020Z,973.03
2018-01-03T05:31:34.009Z,973.17
2018-01-03T05:32:33.995Z,972.97
2018-01-03T05:33:33.997Z,972.92
2018-01-03T05:34:34.021Z,972.99
2018-01-03T05:35:33.962Z,972.97
2018-01-03T05:36:33.949Z,973.02
2018-01-03T05:37:33.938Z,972.98
2018-01-03T05:38:33.927Z,972.69
2018-01-03T05:39:33.915Z,973.00
2018-01-03T05:40:33.903Z,972.96
2018-01-03T05:41:33.894Z,972.93
2018-01-03T05:42:33.880Z,972.85
2018-01-03T05:43:33.868Z,972.92
2018-01-03T05:44:33.856Z,972.88
2018-01-03T05:45:33.845Z,972.77
2018-01-03T05:46:33.834Z,972.62
2018-01-03T05:47:33.826Z,972.65
2018-01-03T05:48:33.811Z,972.65
2018-01-03T05:49:33.799Z,972.57
2018-01-03T05:50:33.788Z,972.58
2018-01-03T05:51:33.776Z,972.55
2018-01-03T05:52:33.765Z,972.47
2018-01-03T05:53:33.754Z,972.41
2018-01-03T05:54:33.741Z,972.46
2018-01-03T05:55:33.731Z,972.42
2018-01-03T05:56:33.720Z,972.39
2018-01-03T05:57:33.708Z,972.39
2018-01-03T05:58:33.696Z,972.28
2018-01-03T05:59:33.686Z,972.25
2018-01-03T06:00:33.673Z,972.37
2018-01-03T06:01:33.662Z,972.53
2018-01-03T06:02:33.652Z,972.31
2018-01-03T06:03:33.641Z,972.39
2018-01-03T06:04:33.628Z,972.40
2018-01-03T06:05:33.617Z,972.34
2018-01-03T06:06:33.606Z,972.31
2018-01-03T06:07:33.594Z,972.23
2018-01-03T06:08:33.582Z,972.16
2018-01-03T06:09:33.571Z,972.02
2018-01-03T06:10:33.560Z,971.97
2018-01-03T06:11:33.549Z,971.82
2018-01-03T06:12:33.536Z,971.79
2018-01-03T06:13:33.526Z,971.76
2018-01-03T06:14:33.515Z,971.93
2018-01-03T06:15:33.503Z,971.91
2018-01-03T06:16:33.493Z,972.19
2018-01-03T06:17:33.481Z,972.28
2018-01-03T06:18:33.469Z,972.18
2018-01-03T06:19:33.459Z,972.27
2018-01-03T06:20:33.447Z,972.22
2018-01-03T06:21:33.436Z,972.31
2018-01-03T06:22:33.425Z,972.28
2018-01-03T06:23:33.413Z,972.31
2018-01-03T06:24:33.401Z,972.29
2018-01-03T06:25:33.392Z,972.31
2018-01-03T06:26:33.381Z,972.34
2018-01-03T06:27:33.368Z,972.25
2018-01-03T06:28:33.357Z,972.34
2018-01-03T06:29:33.344Z,972.30
2018-01-03T06:30:33.334Z,972.16
2018-01-03T06:31:33.323Z,972.30
2018-01-03T06:32:33.312Z,972.24
2018-01-03T06:33:33.299Z,972.23
2018-01-03T06:34:33.288Z,972.09
2018-01-03T06:35:33.277Z,972.11
2018-01-03T06:36:33.264Z,971.90
2018-01-03T06:37:33.254Z,971.81
2018-01-03T06:38:33.248Z,972.06
2018-01-03T06:39:33.231Z,971.86
2018-01-03T06:40:33.220Z,971.85
2018-01-03T06:41:33.209Z,971.86
2018-01-03T06:42:33.197Z,971.80
2018-01-03T06:43:33.187Z,971.69
2018-01-03T06:44:33.174Z,971.75
2018-01-03T06:45:33.168Z,971.76
2018-01-03T06:46:33.152Z,971.57
2018-01-03T06:47:33.140Z,971.80
2018-01-03T06:48:33.174Z,971.80
2018-01-03T06:49:33.116Z,971.91
2018-01-03T06:50:33.106Z,971.84
2018-01-03T06:51:33.094Z,971.88
2018-01-03T06:52:33.083Z,971.89
2018-01-03T06:53:33.072Z,971.93
2018-01-03T06:54:33.059Z,971.96
2018-01-03T06:55:33.049Z,971.84
2018-01-03T06:56:33.037Z,971.88
2018-01-03T06:57:33.026Z,971.90
2018-01-03T06:58:33.013Z,971.95
2018-01-03T06:59:33.002Z,971.82
2018-01-03T07:00:32.988Z,971.53
2018-01-03T07:01:32.979Z,971.59
2018-01-03T07:02:32.968Z,971.55
2018-01-03T07:03:32.956Z,971.61
2018-01-03T07:04:32.943Z,971.55
2018-01-03T07:05:32.936Z,971.70
2018-01-03T07:06:32.921Z,971.62
2018-01-03T07:07:32.909Z,971.59
2018-01-03T07:08:32.897Z,971.70
2018-01-03T07:09:32.885Z,971.65
2018-01-03T07:10:32.875Z,971.66
2018-01-03T07:11:32.862Z,972.05
2018-01-03T07:12:32.850Z,971.91
2018-01-03T07:13:32.839Z,972.14
2018-01-03T07:14:32.833Z,972.10
2018-01-03T07:15:32.816Z,972.02
2018-01-03T07:16:32.804Z,972.03
2018-01-03T07:17:32.792Z,971.84
2018-01-03T07:18:32.781Z,972.04
2018-01-03T07:19:32.770Z,972.07
2018-01-03T07:20:32.763Z,972.19
2018-01-03T07:21:32.746Z,972.30
2018-01-03T07:22:32.735Z,972.28
2018-01-03T07:23:32.724Z,972.22
2018-01-03T07:24:32.711Z,972.44
2018-01-03T07:25:32.700Z,972.46
2018-01-03T07:26:32.690Z,972.49
2018-01-03T07:27:32.678Z,972.65
2018-01-03T07:28:32.666Z,972.69
2018-01-03T07:29:32.654Z,972.65
2018-01-03T07:30:32.645Z,972.73
2018-01-03T07:31:32.631Z,972.78
2018-01-03T07:32:32.620Z,972.83
2018-01-03T07:33:32.608Z,972.83
2018-01-03T07:34:32.596Z,972.89
2018-01-03T07:35:32.586Z,972.94
2018-01-03T07:36:32.574Z,972.95
2018-01-03T07:37:32.562Z,972.98
2018-01-03T07:38:32.551Z,972.89
2018-01-03T07:39:32.540Z,972.92
2018-01-03T07:40:32.527Z,972.91
2018-01-03T07:41:32.518Z,972.84
2018-01-03T07:42:32.506Z,973.18
2018-01-03T07:43:32.494Z,972.95
2018-01-03T07:44:32.483Z,973.09
2018-01-03T07:45:32.517Z,973.21
2018-01-03T07:46:32.459Z,973.12
2018-01-03T07:47:32.449Z,973.00
2018-01-03T07:48:32.436Z,973.16
2018-01-03T07:49:32.426Z,973.16
2018-01-03T07:50:32.414Z,973.12
2018-01-03T07:51:32.402Z,972.98
2018-01-03T07:52:32.391Z,973.01
2018-01-03T07:53:32.379Z,973.05
2018-01-03T07:54:32.368Z,973.01
2018-01-03T07:55:32.356Z,973.00
2018-01-03T07:56:32.344Z,973.10
2018-01-03T07:57:32.333Z,973.00
2018-01-03T07:58:32.322Z,973.06
2018-01-03T07:59:32.311Z,972.89
2018-01-03T08:00:32.299Z,973.09
2018-01-03T08:01:32.287Z,973.20
2018-01-03T08:02:32.277Z,973.23
2018-01-03T08:03:32.265Z,973.21
2018-01-03T08:04:32.253Z,973.23
2018-01-03T08:05:32.241Z,973.30
2018-01-03T08:06:32.230Z,973.34
2018-01-03T08:07:32.219Z,973.35
2018-01-03T08:08:32.205Z,973.28
2018-01-03T08:09:32.196Z,973.37
2018-01-03T08:10:32.184Z,973.39
2018-01-03T08:11:32.173Z,973.42
2018-01-03T08:12:32.160Z,973.39
2018-01-03T08:13:32.150Z,973.48
2018-01-03T08:14:32.138Z,973.42
2018-01-03T08:15:32.127Z,973.38
2018-01-03T08:16:32.114Z,973.36
2018-01-03T08:17:32.103Z,973.41
2018-01-03T08:18:32.092Z,973.54
2018-01-03T08:19:32.081Z,973.66
2018-01-03T08:20:32.068Z,973.70
2018-01-03T08:21:32.056Z,973.73
2018-01-03T08:22:32.045Z,973.69
2018-01-03T08:23:32.033Z,973.51
2018-01-03T08:24:32.020Z,973.76
2018-01-03T08:25:32.009Z,973.71
2018-01-03T08:26:31.996Z,973.74
2018-01-03T08:27:31.985Z,973.81
2018-01-03T08:28:31.972Z,973.92
2018-01-03T08:29:31.960Z,973.80
2018-01-03T08:30:31.949Z,973.86
2018-01-03T08:31:31.936Z,973.87
2018-01-03T08:32:31.922Z,973.87
2018-01-03T08:33:31.913Z,973.79
2018-01-03T08:34:31.899Z,973.90
2018-01-03T08:35:31.887Z,973.92
2018-01-03T08:36:31.873Z,974.02
2018-01-03T08:37:31.861Z,973.99
2018-01-03T08:38:31.850Z,973.98
2018-01-03T08:39:31.838Z,974.16
2018-01-03T08:40:31.825Z,974.14
2018-01-03T08:41:31.813Z,974.13
2018-01-03T08:42:31.800Z,974.17
2018-01-03T08:43:31.788Z,974.37
2018-01-03T08:44:31.775Z,974.31
2018-01-03T08:45:31.764Z,974.27
2018-01-03T08:46:31.752Z,974.38
2018-01-03T08:47:31.739Z,974.44
2018-01-03T08:48:31.726Z,974.37
2018-01-03T08:49:31.722Z,974.59
2018-01-03T08:50:31.702Z,974.52
2018-01-03T08:51:31.690Z,974.63
2018-01-03T08:52:31.678Z,974.79
2018-01-03T08:53:31.666Z,974.72
2018-01-03T08:54:31.653Z,974.71
2018-01-03T08:55:31.641Z,974.82
2018-01-03T08:56:31.628Z,974.76
2018-01-03T08:57:31.616Z,974.71
2018-01-03T08:58:31.604Z,974.84
2018-01-03T08:59:31.596Z,974.70
2018-01-03T09:00:31.582Z,974.81
2018-01-03T09:01:31.567Z,974.94
2018-01-03T09:02:31.555Z,974.87
2018-01-03T09:03:31.543Z,974.91
2018-01-03T09:04:31.530Z,974.92
2018-01-03T09:05:31.518Z,975.08
2018-01-03T09:06:31.505Z,974.93
2018-01-03T09:07:31.499Z,974.97
2018-01-03T09:08:31.480Z,975.04
2018-01-03T09:09:31.467Z,975.14
2018-01-03T09:10:31.455Z,975.11
2018-01-03T09:11:31.445Z,975.13
2018-01-03T09:12:31.431Z,975.13
2018-01-03T09:13:31.418Z,975.13
2018-01-03T09:14:31.448Z,975.27
2018-01-03T09:15:31.396Z,975.18
2018-01-03T09:16:31.382Z,975.23
2018-01-03T09:17:31.371Z,975.33
2018-01-03T09:18:31.358Z,975.15
2018-01-03T09:19:31.353Z,975.44
2018-01-03T09:20:31.333Z,975.30
2018-01-03T09:21:31.323Z,975.38
2018-01-03T09:22:31.310Z,975.43
2018-01-03T09:23:31.299Z,975.59
2018-01-03T09:24:31.286Z,975.59
2018-01-03T09:25:31.273Z,975.44
2018-01-03T09:26:31.263Z,975.49
2018-01-03T09:27:31.251Z,975.48
2018-01-03T09:28:31.238Z,975.77
2018-01-03T09:29:31.226Z,975.49
2018-01-03T09:30:31.214Z,975.73
2018-01-03T09:31:31.203Z,975.70
2018-01-03T09:32:31.191Z,975.69
2018-01-03T09:33:31.178Z,975.82
2018-01-03T09:34:31.166Z,975.76
2018-01-03T09:35:31.155Z,975.61
2018-01-03T09:36:31.142Z,975.66
2018-01-03T09:37:31.130Z,975.70
2018-01-03T09:38:31.119Z,975.76
2018-01-03T09:39:31.108Z,975.87
2018-01-03T09:40:31.095Z,975.66
2018-01-03T09:41:31.083Z,975.71
2018-01-03T09:42:31.072Z,975.79
2018-01-03T09:43:31.061Z,975.91
2018-01-03T09:44:31.048Z,975.86
2018-01-03T09:45:31.036Z,976.01
2018-01-03T09:46:31.025Z,975.92
2018-01-03T09:47:31.014Z,976.01
2018-01-03T09:48:31.002Z,976.02
2018-01-03T09:49:30.991Z,975.90
2018-01-03T09:50:30.980Z,975.99
2018-01-03T09:51:30.968Z,976.08
2018-01-03T09:52:30.957Z,975.97
2018-01-03T09:53:30.944Z,976.07
2018-01-03T09:54:30.933Z,976.19
2018-01-03T09:55:30.923Z,976.16
2018-01-03T09:56:30.911Z,976.16
2018-01-03T09:57:30.900Z,976.18
2018-01-03T09:58:30.888Z,976.18
2018-01-03T09:59:30.877Z,976.28
2018-01-03T10:00:30.865Z,976.60
2018-01-03T10:01:30.854Z,976.38
2018-01-03T10:02:30.843Z,976.51
2018-01-03T10:03:30.832Z,976.27
2018-01-03T10:04:30.822Z,976.44
2018-01-03T10:05:30.809Z,976.37
2018-01-03T10:06:30.797Z,976.22
2018-01-03T10:07:30.787Z,976.47
2018-01-03T10:08:30.775Z,976.09
2018-01-03T10:09:30.767Z,976.38
2018-01-03T10:10:30.753Z,976.41
2018-01-03T10:11:30.742Z,976.42
2018-01-03T10:12:30.732Z,976.45
2018-01-03T10:13:30.719Z,976.39
2018-01-03T10:14:30.709Z,976.47
2018-01-03T10:15:30.697Z,976.64
2018-01-03T10:16:30.739Z,976.51
2018-01-03T10:17:30.674Z,976.65
2018-01-03T10:18:30.662Z,976.58
2018-01-03T10:19:30.652Z,976.63
2018-01-03T10:20:30.639Z,976.65
2018-01-03T10:21:30.629Z,976.66
2018-01-03T10:22:30.618Z,976.73
2018-01-03T10:23:30.606Z,976.79
2018-01-03T10:24:30.599Z,976.60
2018-01-03T10:25:30.583Z,976.67
2018-01-03T10:26:30.571Z,976.77
2018-01-03T10:27:30.560Z,976.91
2018-01-03T10:28:30.546Z,976.87
2018-01-03T10:29:30.536Z,976.75
2018-01-03T10:30:30.525Z,976.81
2018-01-03T10:31:30.521Z,976.77
2018-01-03T10:32:30.507Z,976.75
2018-01-03T10:33:30.489Z,976.77
2018-01-03T10:34:30.479Z,976.94
2018-01-03T10:35:30.468Z,976.92
2018-01-03T10:36:30.456Z,976.91
2018-01-03T10:37:30.442Z,976.88
2018-01-03T10:38:30.433Z,977.14
2018-01-03T10:39:30.420Z,976.83
2018-01-03T10:40:30.408Z,976.93
2018-01-03T10:41:30.397Z,976.94
2018-01-03T10:42:30.385Z,977.02
2018-01-03T10:43:30.374Z,976.84
2018-01-03T10:44:30.362Z,976.97
2018-01-03T10:45:30.351Z,976.92
2018-01-03T10:46:30.338Z,977.07
2018-01-03T10:47:30.328Z,976.95
2018-01-03T10:48:30.315Z,977.05
2018-01-03T10:49:30.303Z,977.08
2018-01-03T10:50:30.292Z,977.04
2018-01-03T10:51:30.280Z,977.00
2018-01-03T10:52:30.268Z,976.94
2018-01-03T10:53:30.257Z,977.12
2018-01-03T10:54:30.246Z,977.12
2018-01-03T10:55:30.234Z,976.99
2018-01-03T10:56:30.221Z,977.13
2018-01-03T10:57:30.210Z,977.17
2018-01-03T10:58:30.199Z,977.18
2018-01-03T10:59:30.188Z,976.95
2018-01-03T11:00:30.175Z,977.08
2018-01-03T11:01:30.164Z,977.09
2018-01-03T11:02:30.153Z,977.18
2018-01-03T11:03:30.142Z,977.14
2018-01-03T11:04:30.128Z,977.30
2018-01-03T11:05:30.117Z,977.26
2018-01-03T11:06:30.106Z,977.12
2018-01-03T11:07:30.094Z,977.19
2018-01-03T11:08:30.082Z,977.21
2018-01-03T11:09:30.071Z,977.12
2018-01-03T11:10:30.058Z,977.12
2018-01-03T11:11:30.046Z,977.23
2018-01-03T11:12:30.034Z,977.30
2018-01-03T11:13:30.022Z,976.99
2018-01-03T11:14:30.011Z,977.25
2018-01-03T11:15:29.999Z,977.18
2018-01-03T11:16:29.987Z,977.20
2018-01-03T11:17:29.976Z,977.31
2018-01-03T11:18:29.963Z,977.28
2018-01-03T11:19:29.952Z,977.32
2018-01-03T11:20:29.939Z,977.27
2018-01-03T11:21:29.929Z,977.37
2018-01-03T11:22:29.925Z,977.46
2018-01-03T11:23:29.905Z,977.55
2018-01-03T11:24:29.893Z,977.44
2018-01-03T11:25:29.881Z,977.49
2018-01-03T11:26:29.872Z,977.47
2018-01-03T11:27:29.857Z,977.34
2018-01-03T11:28:29.845Z,977.53
2018-01-03T11:29:29.833Z,977.30
2018-01-03T11:30:29.821Z,977.48
2018-01-03T11:31:29.809Z,977.45
2018-01-03T11:32:29.797Z,977.45
2018-01-03T11:33:29.785Z,977.50
2018-01-03T11:34:29.774Z,977.25
2018-01-03T11:35:29.762Z,977.44
2018-01-03T11:36:29.750Z,977.58
2018-01-03T11:37:29.737Z,977.53
2018-01-03T11:38:29.726Z,977.58
2018-01-03T11:39:29.715Z,977.48
2018-01-03T11:40:29.701Z,977.51
2018-01-03T11:41:29.693Z,977.60
2018-01-03T11:42:29.686Z,977.58
2018-01-03T11:43:29.673Z,977.53
2018-01-03T11:44:29.654Z,977.60
2018-01-03T11:45:29.641Z,977.91
2018-01-03T11:46:29.631Z,977.71
2018-01-03T11:47:29.619Z,977.59
2018-01-03T11:48:29.607Z,977.63
2018-01-03T11:49:29.594Z,977.62
2018-01-03T11:50:29.583Z,977.70
2018-01-03T11:51:29.571Z,977.81
2018-01-03T11:52:29.558Z,977.70
2018-01-03T11:53:29.546Z,977.88
2018-01-03T11:54:29.535Z,977.73
2018-01-03T11:55:29.523Z,977.79
2018-01-03T11:56:29.510Z,977.85
2018-01-03T11:57:29.499Z,977.91
2018-01-03T11:58:29.495Z,977.96
2018-01-03T11:59:29.475Z,977.98
2018-01-03T12:00:29.462Z,978.14
2018-01-03T12:01:29.450Z,978.16
2018-01-03T12:02:29.439Z,978.16
2018-01-03T12:03:29.427Z,978.16
2018-01-03T12:04:29.414Z,978.31
2018-01-03T12:05:29.402Z,978.24
2018-01-03T12:06:29.393Z,978.26
2018-01-03T12:07:29.378Z,978.29
2018-01-03T12:08:29.366Z,977.95
2018-01-03T12:09:29.353Z,978.21
2018-01-03T12:10:29.341Z,978.48
2018-01-03T12:11:29.330Z,978.09
2018-01-03T12:12:29.321Z,978.45
2018-01-03T12:13:29.306Z,978.29
2018-01-03T12:14:29.297Z,978.36
2018-01-03T12:15:29.281Z,978.19
2018-01-03T12:16:29.268Z,978.47
2018-01-03T12:17:29.256Z,978.37
2018-01-03T12:18:29.245Z,978.70
2018-01-03T12:19:29.233Z,978.66
2018-01-03T12:20:29.220Z,978.52
2018-01-03T12:21:29.208Z,978.57
2018-01-03T12:22:29.197Z,978.68
2018-01-03T12:23:29.185Z,978.75
2018-01-03T12:24:29.172Z,978.74
2018-01-03T12:25:29.163Z,978.54
2018-01-03T12:26:29.148Z,978.76
2018-01-03T12:27:29.136Z,978.72
2018-01-03T12:28:29.123Z,978.70